sensor_id;sensor_type;location;lat;lon;timestamp;P1;durP1;ratioP1;P2;durP2;ratioP2
60896;SDS011;46749;32.932;-117.130;2022-08-05T00:01:13;9.45;;;3.83;;
60896;SDS011;46749;32.932;-117.130;2022-08-05T00:03:45;9.02;;;3.03;;
60896;SDS011;46749;32.932;-117.130;2022-08-05T00:06:12;8.55;;;3.67;;
60896;SDS011;46749;32.932;-117.130;2022-08-05T00:08:38;8.60;;;3.08;;
60896;SDS011;46749;32.932;-117.130;2022-08-05T00:11:06;7.78;;;3.17;;
60896;SDS011;46749;32.932;-117.130;2022-08-05T00:13:35;6.72;;;2.92;;
60896;SDS011;46749;32.932;-117.130;2022-08-05T00:16:03;7.95;;;2.92;;
60896;SDS011;46749;32.932;-117.130;2022-08-05T00:18:29;9.90;;;3.30;;
60896;SDS011;46749;32.932;-117.130;2022-08-05T00:20:56;7.40;;;2.58;;
60896;SDS011;46749;32.932;-117.130;2022-08-05T00:23:23;8.88;;;3.00;;
60896;SDS011;46749;32.932;-117.130;2022-08-05T00:25:49;6.75;;;2.90;;
60896;SDS011;46749;32.932;-117.130;2022-08-05T00:28:16;5.38;;;2.97;;
60896;SDS011;46749;32.932;-117.130;2022-08-05T00:30:42;10.25;;;3.25;;
60896;SDS011;46749;32.932;-117.130;2022-08-05T00:33:08;8.68;;;3.53;;
60896;SDS011;46749;32.932;-117.130;2022-08-05T00:35:35;6.72;;;2.95;;
60896;SDS011;46749;32.932;-117.130;2022-08-05T00:38:01;7.15;;;2.50;;
60896;SDS011;46749;32.932;-117.130;2022-08-05T00:40:27;9.65;;;3.00;;
60896;SDS011;46749;32.932;-117.130;2022-08-05T00:42:57;7.13;;;2.83;;
60896;SDS011;46749;32.932;-117.130;2022-08-05T00:45:25;6.90;;;2.78;;
60896;SDS011;46749;32.932;-117.130;2022-08-05T00:47:51;7.80;;;3.28;;
60896;SDS011;46749;32.932;-117.130;2022-08-05T00:50:17;6.35;;;2.90;;
60896;SDS011;46749;32.932;-117.130;2022-08-05T00:52:43;9.52;;;3.72;;
60896;SDS011;46749;32.932;-117.130;2022-08-05T00:55:09;6.95;;;3.65;;
60896;SDS011;46749;32.932;-117.130;2022-08-05T00:57:36;8.02;;;3.17;;
60896;SDS011;46749;32.932;-117.130;2022-08-05T01:00:03;6.85;;;2.70;;
60896;SDS011;46749;32.932;-117.130;2022-08-05T01:02:31;7.88;;;3.38;;
60896;SDS011;46749;32.932;-117.130;2022-08-05T01:04:57;6.22;;;2.50;;
60896;SDS011;46749;32.932;-117.130;2022-08-05T01:07:23;5.97;;;2.95;;
60896;SDS011;46749;32.932;-117.130;2022-08-05T01:09:49;8.18;;;3.00;;
60896;SDS011;46749;32.932;-117.130;2022-08-05T01:12:16;11.02;;;3.58;;
60896;SDS011;46749;32.932;-117.130;2022-08-05T01:14:51;7.82;;;3.63;;
60896;SDS011;46749;32.932;-117.130;2022-08-05T01:23:01;7.20;;;3.13;;
60896;SDS011;46749;32.932;-117.130;2022-08-05T01:25:45;6.70;;;2.83;;
60896;SDS011;46749;32.932;-117.130;2022-08-05T01:28:21;7.63;;;3.15;;
60896;SDS011;46749;32.932;-117.130;2022-08-05T01:31:00;6.88;;;3.50;;
60896;SDS011;46749;32.932;-117.130;2022-08-05T01:33:50;6.22;;;3.13;;
60896;SDS011;46749;32.932;-117.130;2022-08-05T01:36:28;5.78;;;2.83;;
60896;SDS011;46749;32.932;-117.130;2022-08-05T01:39:00;7.88;;;3.03;;
60896;SDS011;46749;32.932;-117.130;2022-08-05T01:41:28;7.93;;;3.47;;
60896;SDS011;46749;32.932;-117.130;2022-08-05T01:43:58;6.68;;;3.20;;
60896;SDS011;46749;32.932;-117.130;2022-08-05T01:46:26;9.65;;;3.30;;
60896;SDS011;46749;32.932;-117.130;2022-08-05T01:48:55;6.68;;;3.17;;
60896;SDS011;46749;32.932;-117.130;2022-08-05T01:51:23;10.35;;;3.45;;
60896;SDS011;46749;32.932;-117.130;2022-08-05T01:53:51;6.72;;;3.22;;
60896;SDS011;46749;32.932;-117.130;2022-08-05T01:56:19;9.77;;;3.60;;
60896;SDS011;46749;32.932;-117.130;2022-08-05T01:58:48;9.35;;;3.75;;
60896;SDS011;46749;32.932;-117.130;2022-08-05T02:01:19;10.10;;;2.97;;
60896;SDS011;46749;32.932;-117.130;2022-08-05T02:03:46;6.05;;;2.83;;
60896;SDS011;46749;32.932;-117.130;2022-08-05T02:06:16;7.15;;;3.47;;
60896;SDS011;46749;32.932;-117.130;2022-08-05T02:08:42;6.05;;;3.08;;
60896;SDS011;46749;32.932;-117.130;2022-08-05T02:11:12;8.95;;;3.05;;
60896;SDS011;46749;32.932;-117.130;2022-08-05T02:13:46;9.45;;;3.70;;
60896;SDS011;46749;32.932;-117.130;2022-08-05T02:17:06;8.38;;;3.13;;
60896;SDS011;46749;32.932;-117.130;2022-08-05T02:19:18;7.07;;;3.42;;
60896;SDS011;46749;32.932;-117.130;2022-08-05T02:21:58;8.32;;;3.00;;
60896;SDS011;46749;32.932;-117.130;2022-08-05T02:24:31;7.00;;;3.15;;
60896;SDS011;46749;32.932;-117.130;2022-08-05T02:27:02;9.23;;;3.30;;
60896;SDS011;46749;32.932;-117.130;2022-08-05T02:29:31;5.38;;;2.55;;
60896;SDS011;46749;32.932;-117.130;2022-08-05T02:31:59;7.60;;;2.67;;
60896;SDS011;46749;32.932;-117.130;2022-08-05T02:34:27;9.85;;;3.67;;
60896;SDS011;46749;32.932;-117.130;2022-08-05T02:36:59;6.05;;;2.70;;
60896;SDS011;46749;32.932;-117.130;2022-08-05T02:39:30;4.50;;;2.70;;
60896;SDS011;46749;32.932;-117.130;2022-08-05T02:42:03;5.28;;;2.78;;
60896;SDS011;46749;32.932;-117.130;2022-08-05T02:44:31;5.45;;;2.90;;
60896;SDS011;46749;32.932;-117.130;2022-08-05T02:47:00;6.47;;;3.03;;
60896;SDS011;46749;32.932;-117.130;2022-08-05T02:49:36;6.45;;;3.25;;
60896;SDS011;46749;32.932;-117.130;2022-08-05T02:52:08;6.53;;;3.05;;
60896;SDS011;46749;32.932;-117.130;2022-08-05T02:54:36;7.60;;;3.05;;
60896;SDS011;46749;32.932;-117.130;2022-08-05T02:57:05;7.30;;;2.95;;
60896;SDS011;46749;32.932;-117.130;2022-08-05T02:59:34;6.70;;;3.08;;
60896;SDS011;46749;32.932;-117.130;2022-08-05T03:02:01;6.20;;;2.70;;
60896;SDS011;46749;32.932;-117.130;2022-08-05T03:04:28;7.40;;;3.58;;
60896;SDS011;46749;32.932;-117.130;2022-08-05T03:06:55;6.25;;;3.10;;
60896;SDS011;46749;32.932;-117.130;2022-08-05T03:09:23;5.43;;;2.75;;
60896;SDS011;46749;32.932;-117.130;2022-08-05T03:11:49;6.40;;;3.05;;
60896;SDS011;46749;32.932;-117.130;2022-08-05T03:14:16;7.18;;;2.67;;
60896;SDS011;46749;32.932;-117.130;2022-08-05T03:16:42;6.10;;;2.42;;
60896;SDS011;46749;32.932;-117.130;2022-08-05T03:19:08;6.82;;;3.15;;
60896;SDS011;46749;32.932;-117.130;2022-08-05T03:21:34;4.75;;;2.35;;
60896;SDS011;46749;32.932;-117.130;2022-08-05T03:24:00;4.88;;;2.90;;
60896;SDS011;46749;32.932;-117.130;2022-08-05T03:26:27;5.03;;;2.92;;
60896;SDS011;46749;32.932;-117.130;2022-08-05T03:28:54;6.60;;;2.45;;
60896;SDS011;46749;32.932;-117.130;2022-08-05T03:31:20;5.70;;;2.63;;
60896;SDS011;46749;32.932;-117.130;2022-08-05T03:33:46;6.68;;;2.53;;
60896;SDS011;46749;32.932;-117.130;2022-08-05T03:36:12;5.55;;;2.95;;
60896;SDS011;46749;32.932;-117.130;2022-08-05T03:38:39;3.30;;;2.58;;
60896;SDS011;46749;32.932;-117.130;2022-08-05T03:41:06;6.63;;;2.53;;
60896;SDS011;46749;32.932;-117.130;2022-08-05T03:43:33;4.85;;;2.13;;
60896;SDS011;46749;32.932;-117.130;2022-08-05T03:45:59;6.30;;;2.55;;
60896;SDS011;46749;32.932;-117.130;2022-08-05T03:48:26;5.47;;;2.78;;
60896;SDS011;46749;32.932;-117.130;2022-08-05T03:54:11;5.25;;;2.83;;
60896;SDS011;46749;32.932;-117.130;2022-08-05T03:56:44;5.28;;;2.78;;
60896;SDS011;46749;32.932;-117.130;2022-08-05T03:59:19;5.45;;;2.67;;
60896;SDS011;46749;32.932;-117.130;2022-08-05T04:01:48;6.53;;;2.60;;
60896;SDS011;46749;32.932;-117.130;2022-08-05T04:04:16;7.15;;;2.70;;
60896;SDS011;46749;32.932;-117.130;2022-08-05T04:06:46;5.72;;;2.80;;
60896;SDS011;46749;32.932;-117.130;2022-08-05T04:09:13;5.15;;;2.97;;
60896;SDS011;46749;32.932;-117.130;2022-08-05T04:11:41;5.93;;;2.20;;
60896;SDS011;46749;32.932;-117.130;2022-08-05T04:14:07;6.93;;;2.97;;
60896;SDS011;46749;32.932;-117.130;2022-08-05T04:16:35;6.10;;;2.42;;
60896;SDS011;46749;32.932;-117.130;2022-08-05T04:19:02;4.38;;;2.35;;
60896;SDS011;46749;32.932;-117.130;2022-08-05T04:21:29;7.32;;;2.83;;
60896;SDS011;46749;32.932;-117.130;2022-08-05T04:23:56;3.55;;;2.15;;
60896;SDS011;46749;32.932;-117.130;2022-08-05T04:26:23;6.25;;;2.05;;
60896;SDS011;46749;32.932;-117.130;2022-08-05T04:28:49;4.68;;;2.47;;
60896;SDS011;46749;32.932;-117.130;2022-08-05T04:31:15;5.72;;;2.55;;
60896;SDS011;46749;32.932;-117.130;2022-08-05T04:33:41;4.97;;;2.33;;
60896;SDS011;46749;32.932;-117.130;2022-08-05T04:36:08;6.13;;;2.85;;
60896;SDS011;46749;32.932;-117.130;2022-08-05T04:38:37;5.20;;;2.47;;
60896;SDS011;46749;32.932;-117.130;2022-08-05T04:41:03;7.53;;;2.80;;
60896;SDS011;46749;32.932;-117.130;2022-08-05T04:43:29;6.00;;;3.00;;
60896;SDS011;46749;32.932;-117.130;2022-08-05T04:45:56;3.85;;;2.40;;
60896;SDS011;46749;32.932;-117.130;2022-08-05T04:48:22;5.22;;;2.30;;
60896;SDS011;46749;32.932;-117.130;2022-08-05T04:50:48;4.82;;;2.10;;
60896;SDS011;46749;32.932;-117.130;2022-08-05T04:53:16;5.05;;;2.45;;
60896;SDS011;46749;32.932;-117.130;2022-08-05T04:55:43;4.97;;;1.70;;
60896;SDS011;46749;32.932;-117.130;2022-08-05T04:58:12;3.95;;;2.13;;
60896;SDS011;46749;32.932;-117.130;2022-08-05T05:00:40;7.88;;;2.42;;
60896;SDS011;46749;32.932;-117.130;2022-08-05T05:03:07;6.05;;;2.28;;
60896;SDS011;46749;32.932;-117.130;2022-08-05T05:05:34;5.05;;;2.25;;
60896;SDS011;46749;32.932;-117.130;2022-08-05T05:08:02;6.25;;;2.70;;
60896;SDS011;46749;32.932;-117.130;2022-08-05T05:10:39;6.80;;;2.70;;
60896;SDS011;46749;32.932;-117.130;2022-08-05T05:13:08;5.13;;;2.75;;
60896;SDS011;46749;32.932;-117.130;2022-08-05T05:15:35;5.35;;;2.45;;
60896;SDS011;46749;32.932;-117.130;2022-08-05T05:18:02;4.15;;;2.20;;
60896;SDS011;46749;32.932;-117.130;2022-08-05T05:20:29;3.50;;;2.00;;
60896;SDS011;46749;32.932;-117.130;2022-08-05T05:22:56;6.63;;;2.47;;
60896;SDS011;46749;32.932;-117.130;2022-08-05T05:25:23;5.85;;;2.10;;
60896;SDS011;46749;32.932;-117.130;2022-08-05T05:27:50;4.75;;;2.30;;
60896;SDS011;46749;32.932;-117.130;2022-08-05T05:30:20;6.75;;;2.65;;
60896;SDS011;46749;32.932;-117.130;2022-08-05T05:32:46;4.82;;;2.22;;
60896;SDS011;46749;32.932;-117.130;2022-08-05T05:35:13;6.70;;;2.63;;
60896;SDS011;46749;32.932;-117.130;2022-08-05T05:37:51;4.25;;;2.22;;
60896;SDS011;46749;32.932;-117.130;2022-08-05T05:40:19;4.25;;;2.72;;
60896;SDS011;46749;32.932;-117.130;2022-08-05T05:42:47;3.45;;;1.88;;
60896;SDS011;46749;32.932;-117.130;2022-08-05T05:45:14;6.50;;;2.30;;
60896;SDS011;46749;32.932;-117.130;2022-08-05T05:47:41;4.40;;;2.13;;
60896;SDS011;46749;32.932;-117.130;2022-08-05T05:50:07;5.05;;;2.00;;
60896;SDS011;46749;32.932;-117.130;2022-08-05T05:52:35;6.22;;;2.60;;
60896;SDS011;46749;32.932;-117.130;2022-08-05T05:55:03;3.85;;;2.08;;
60896;SDS011;46749;32.932;-117.130;2022-08-05T05:57:34;7.07;;;2.25;;
60896;SDS011;46749;32.932;-117.130;2022-08-05T06:00:01;5.20;;;2.40;;
60896;SDS011;46749;32.932;-117.130;2022-08-05T06:02:29;5.95;;;2.05;;
60896;SDS011;46749;32.932;-117.130;2022-08-05T06:04:55;5.03;;;2.33;;
60896;SDS011;46749;32.932;-117.130;2022-08-05T06:07:22;3.90;;;1.83;;
60896;SDS011;46749;32.932;-117.130;2022-08-05T06:09:48;3.67;;;2.00;;
60896;SDS011;46749;32.932;-117.130;2022-08-05T06:12:14;5.93;;;2.50;;
60896;SDS011;46749;32.932;-117.130;2022-08-05T06:14:40;3.65;;;1.85;;
60896;SDS011;46749;32.932;-117.130;2022-08-05T06:17:08;5.63;;;1.80;;
60896;SDS011;46749;32.932;-117.130;2022-08-05T06:19:35;3.95;;;2.17;;
60896;SDS011;46749;32.932;-117.130;2022-08-05T06:22:05;7.20;;;1.98;;
60896;SDS011;46749;32.932;-117.130;2022-08-05T06:24:33;5.38;;;2.05;;
60896;SDS011;46749;32.932;-117.130;2022-08-05T06:27:00;6.38;;;2.35;;
60896;SDS011;46749;32.932;-117.130;2022-08-05T06:29:27;4.13;;;2.20;;
60896;SDS011;46749;32.932;-117.130;2022-08-05T06:31:53;5.75;;;2.28;;
60896;SDS011;46749;32.932;-117.130;2022-08-05T06:34:19;5.97;;;2.38;;
60896;SDS011;46749;32.932;-117.130;2022-08-05T06:36:45;3.55;;;2.08;;
60896;SDS011;46749;32.932;-117.130;2022-08-05T06:39:11;6.45;;;2.60;;
60896;SDS011;46749;32.932;-117.130;2022-08-05T06:41:38;5.10;;;2.03;;
60896;SDS011;46749;32.932;-117.130;2022-08-05T06:44:04;4.07;;;1.95;;
60896;SDS011;46749;32.932;-117.130;2022-08-05T06:46:30;5.15;;;1.92;;
60896;SDS011;46749;32.932;-117.130;2022-08-05T06:48:57;4.35;;;1.92;;
60896;SDS011;46749;32.932;-117.130;2022-08-05T06:51:23;7.25;;;2.65;;
60896;SDS011;46749;32.932;-117.130;2022-08-05T06:53:49;3.97;;;2.00;;
60896;SDS011;46749;32.932;-117.130;2022-08-05T06:56:15;4.22;;;2.40;;
60896;SDS011;46749;32.932;-117.130;2022-08-05T06:58:43;6.03;;;2.22;;
60896;SDS011;46749;32.932;-117.130;2022-08-05T07:01:10;4.40;;;2.17;;
60896;SDS011;46749;32.932;-117.130;2022-08-05T07:03:36;5.38;;;2.20;;
60896;SDS011;46749;32.932;-117.130;2022-08-05T07:06:02;4.85;;;2.13;;
60896;SDS011;46749;32.932;-117.130;2022-08-05T07:08:29;5.00;;;2.30;;
60896;SDS011;46749;32.932;-117.130;2022-08-05T07:10:55;5.75;;;1.98;;
60896;SDS011;46749;32.932;-117.130;2022-08-05T07:13:21;5.32;;;2.25;;
60896;SDS011;46749;32.932;-117.130;2022-08-05T07:16:06;4.60;;;2.37;;
60896;SDS011;46749;32.932;-117.130;2022-08-05T07:18:51;6.97;;;2.88;;
60896;SDS011;46749;32.932;-117.130;2022-08-05T07:21:17;6.15;;;2.10;;
60896;SDS011;46749;32.932;-117.130;2022-08-05T07:23:43;6.65;;;2.50;;
60896;SDS011;46749;32.932;-117.130;2022-08-05T07:26:09;5.35;;;2.30;;
60896;SDS011;46749;32.932;-117.130;2022-08-05T07:28:35;4.07;;;2.22;;
60896;SDS011;46749;32.932;-117.130;2022-08-05T07:31:02;6.90;;;2.25;;
60896;SDS011;46749;32.932;-117.130;2022-08-05T07:33:28;6.05;;;2.33;;
60896;SDS011;46749;32.932;-117.130;2022-08-05T07:35:54;4.95;;;2.00;;
60896;SDS011;46749;32.932;-117.130;2022-08-05T07:38:20;3.35;;;1.88;;
60896;SDS011;46749;32.932;-117.130;2022-08-05T07:40:46;7.35;;;2.83;;
60896;SDS011;46749;32.932;-117.130;2022-08-05T07:43:12;6.00;;;2.25;;
60896;SDS011;46749;32.932;-117.130;2022-08-05T07:45:39;5.03;;;1.95;;
60896;SDS011;46749;32.932;-117.130;2022-08-05T07:48:08;4.00;;;2.30;;
60896;SDS011;46749;32.932;-117.130;2022-08-05T07:50:54;3.20;;;1.98;;
60896;SDS011;46749;32.932;-117.130;2022-08-05T07:53:20;6.70;;;2.55;;
60896;SDS011;46749;32.932;-117.130;2022-08-05T07:55:46;7.53;;;2.53;;
60896;SDS011;46749;32.932;-117.130;2022-08-05T07:58:12;5.70;;;2.05;;
60896;SDS011;46749;32.932;-117.130;2022-08-05T08:00:39;5.35;;;2.30;;
60896;SDS011;46749;32.932;-117.130;2022-08-05T08:03:08;5.32;;;2.45;;
60896;SDS011;46749;32.932;-117.130;2022-08-05T08:05:36;5.78;;;2.38;;
60896;SDS011;46749;32.932;-117.130;2022-08-05T08:08:02;5.75;;;2.50;;
60896;SDS011;46749;32.932;-117.130;2022-08-05T08:10:29;6.30;;;2.25;;
60896;SDS011;46749;32.932;-117.130;2022-08-05T08:12:55;4.40;;;2.30;;
60896;SDS011;46749;32.932;-117.130;2022-08-05T08:15:21;4.30;;;2.45;;
60896;SDS011;46749;32.932;-117.130;2022-08-05T08:17:47;4.50;;;2.10;;
60896;SDS011;46749;32.932;-117.130;2022-08-05T08:20:13;4.20;;;2.00;;
60896;SDS011;46749;32.932;-117.130;2022-08-05T08:22:39;5.55;;;2.22;;
60896;SDS011;46749;32.932;-117.130;2022-08-05T08:25:06;5.43;;;2.47;;
60896;SDS011;46749;32.932;-117.130;2022-08-05T08:27:32;4.93;;;2.40;;
60896;SDS011;46749;32.932;-117.130;2022-08-05T08:29:59;5.53;;;2.97;;
60896;SDS011;46749;32.932;-117.130;2022-08-05T08:32:25;4.70;;;2.33;;
60896;SDS011;46749;32.932;-117.130;2022-08-05T08:34:52;5.82;;;2.35;;
60896;SDS011;46749;32.932;-117.130;2022-08-05T08:37:18;4.60;;;2.15;;
60896;SDS011;46749;32.932;-117.130;2022-08-05T08:39:44;3.85;;;2.08;;
60896;SDS011;46749;32.932;-117.130;2022-08-05T08:42:11;4.53;;;2.20;;
60896;SDS011;46749;32.932;-117.130;2022-08-05T08:44:38;3.92;;;2.17;;
60896;SDS011;46749;32.932;-117.130;2022-08-05T08:47:05;5.93;;;2.42;;
60896;SDS011;46749;32.932;-117.130;2022-08-05T08:49:33;3.13;;;1.90;;
60896;SDS011;46749;32.932;-117.130;2022-08-05T08:52:11;4.32;;;2.30;;
60896;SDS011;46749;32.932;-117.130;2022-08-05T08:54:38;5.03;;;1.92;;
60896;SDS011;46749;32.932;-117.130;2022-08-05T08:57:05;5.45;;;2.00;;
60896;SDS011;46749;32.932;-117.130;2022-08-05T08:59:32;6.32;;;2.13;;
60896;SDS011;46749;32.932;-117.130;2022-08-05T09:01:59;2.65;;;1.67;;
60896;SDS011;46749;32.932;-117.130;2022-08-05T09:04:29;3.90;;;2.17;;
60896;SDS011;46749;32.932;-117.130;2022-08-05T09:06:55;4.03;;;2.00;;
60896;SDS011;46749;32.932;-117.130;2022-08-05T09:09:21;3.20;;;1.65;;
60896;SDS011;46749;32.932;-117.130;2022-08-05T09:11:48;3.92;;;2.05;;
60896;SDS011;46749;32.932;-117.130;2022-08-05T09:14:14;4.13;;;1.77;;
60896;SDS011;46749;32.932;-117.130;2022-08-05T09:16:41;2.80;;;1.88;;
60896;SDS011;46749;32.932;-117.130;2022-08-05T09:19:07;4.03;;;1.65;;
60896;SDS011;46749;32.932;-117.130;2022-08-05T09:21:34;3.80;;;1.50;;
60896;SDS011;46749;32.932;-117.130;2022-08-05T09:24:04;6.38;;;1.98;;
60896;SDS011;46749;32.932;-117.130;2022-08-05T09:26:37;2.38;;;1.50;;
60896;SDS011;46749;32.932;-117.130;2022-08-05T09:29:04;3.42;;;1.75;;
60896;SDS011;46749;32.932;-117.130;2022-08-05T09:31:32;4.43;;;1.95;;
60896;SDS011;46749;32.932;-117.130;2022-08-05T09:34:06;3.85;;;2.00;;
60896;SDS011;46749;32.932;-117.130;2022-08-05T09:36:40;4.55;;;2.50;;
60896;SDS011;46749;32.932;-117.130;2022-08-05T09:39:19;2.80;;;1.85;;
60896;SDS011;46749;32.932;-117.130;2022-08-05T09:42:20;4.57;;;1.50;;
60896;SDS011;46749;32.932;-117.130;2022-08-05T09:44:41;5.20;;;1.98;;
60896;SDS011;46749;32.932;-117.130;2022-08-05T09:47:10;5.93;;;2.20;;
60896;SDS011;46749;32.932;-117.130;2022-08-05T09:49:40;3.72;;;1.73;;
60896;SDS011;46749;32.932;-117.130;2022-08-05T09:52:15;4.60;;;2.00;;
60896;SDS011;46749;32.932;-117.130;2022-08-05T09:54:53;4.47;;;1.88;;
60896;SDS011;46749;32.932;-117.130;2022-08-05T09:57:28;3.80;;;1.92;;
60896;SDS011;46749;32.932;-117.130;2022-08-05T10:00:13;4.15;;;1.83;;
60896;SDS011;46749;32.932;-117.130;2022-08-05T10:02:42;4.55;;;2.05;;
60896;SDS011;46749;32.932;-117.130;2022-08-05T10:05:15;4.32;;;1.75;;
60896;SDS011;46749;32.932;-117.130;2022-08-05T10:07:43;4.15;;;1.63;;
60896;SDS011;46749;32.932;-117.130;2022-08-05T10:10:10;5.53;;;2.15;;
60896;SDS011;46749;32.932;-117.130;2022-08-05T10:12:40;4.05;;;2.00;;
60896;SDS011;46749;32.932;-117.130;2022-08-05T10:15:36;3.55;;;1.80;;
60896;SDS011;46749;32.932;-117.130;2022-08-05T10:18:11;3.85;;;1.83;;
60896;SDS011;46749;32.932;-117.130;2022-08-05T10:20:48;3.08;;;1.60;;
60896;SDS011;46749;32.932;-117.130;2022-08-05T10:23:22;3.75;;;1.65;;
60896;SDS011;46749;32.932;-117.130;2022-08-05T10:25:56;3.42;;;1.67;;
60896;SDS011;46749;32.932;-117.130;2022-08-05T10:28:24;4.90;;;1.85;;
60896;SDS011;46749;32.932;-117.130;2022-08-05T10:30:52;4.88;;;1.90;;
60896;SDS011;46749;32.932;-117.130;2022-08-05T10:33:19;4.53;;;1.92;;
60896;SDS011;46749;32.932;-117.130;2022-08-05T10:35:48;3.65;;;1.70;;
60896;SDS011;46749;32.932;-117.130;2022-08-05T10:38:15;2.17;;;1.40;;
60896;SDS011;46749;32.932;-117.130;2022-08-05T10:41:06;3.45;;;1.55;;
60896;SDS011;46749;32.932;-117.130;2022-08-05T10:43:54;2.60;;;1.65;;
60896;SDS011;46749;32.932;-117.130;2022-08-05T10:46:36;2.60;;;1.60;;
60896;SDS011;46749;32.932;-117.130;2022-08-05T10:49:17;4.70;;;1.60;;
60896;SDS011;46749;32.932;-117.130;2022-08-05T10:51:45;2.28;;;1.60;;
60896;SDS011;46749;32.932;-117.130;2022-08-05T10:54:15;3.60;;;1.60;;
60896;SDS011;46749;32.932;-117.130;2022-08-05T10:56:46;3.47;;;1.75;;
60896;SDS011;46749;32.932;-117.130;2022-08-05T10:59:17;3.60;;;1.73;;
60896;SDS011;46749;32.932;-117.130;2022-08-05T11:01:53;6.80;;;1.95;;
60896;SDS011;46749;32.932;-117.130;2022-08-05T11:04:33;2.90;;;1.70;;
60896;SDS011;46749;32.932;-117.130;2022-08-05T11:07:10;2.10;;;1.50;;
60896;SDS011;46749;32.932;-117.130;2022-08-05T11:09:43;2.78;;;1.83;;
60896;SDS011;46749;32.932;-117.130;2022-08-05T11:20:59;3.65;;;1.60;;
60896;SDS011;46749;32.932;-117.130;2022-08-05T11:26:01;3.88;;;1.38;;
60896;SDS011;46749;32.932;-117.130;2022-08-05T11:33:27;3.70;;;1.40;;
60896;SDS011;46749;32.932;-117.130;2022-08-05T11:35:58;2.33;;;1.50;;
60896;SDS011;46749;32.932;-117.130;2022-08-05T11:41:20;2.13;;;1.20;;
60896;SDS011;46749;32.932;-117.130;2022-08-05T11:43:56;3.05;;;1.48;;
60896;SDS011;46749;32.932;-117.130;2022-08-05T11:46:51;2.63;;;1.52;;
60896;SDS011;46749;32.932;-117.130;2022-08-05T11:49:20;5.18;;;1.42;;
60896;SDS011;46749;32.932;-117.130;2022-08-05T11:51:48;2.53;;;1.35;;
60896;SDS011;46749;32.932;-117.130;2022-08-05T11:54:24;2.30;;;1.65;;
60896;SDS011;46749;32.932;-117.130;2022-08-05T11:56:53;2.40;;;1.38;;
60896;SDS011;46749;32.932;-117.130;2022-08-05T11:59:21;3.22;;;1.60;;
60896;SDS011;46749;32.932;-117.130;2022-08-05T12:01:56;2.53;;;1.65;;
60896;SDS011;46749;32.932;-117.130;2022-08-05T12:04:26;3.00;;;1.50;;
60896;SDS011;46749;32.932;-117.130;2022-08-05T12:06:54;5.25;;;1.98;;
60896;SDS011;46749;32.932;-117.130;2022-08-05T12:09:24;2.28;;;1.50;;
60896;SDS011;46749;32.932;-117.130;2022-08-05T12:11:53;3.70;;;1.48;;
60896;SDS011;46749;32.932;-117.130;2022-08-05T12:14:20;4.07;;;1.70;;
60896;SDS011;46749;32.932;-117.130;2022-08-05T12:16:46;4.40;;;2.15;;
60896;SDS011;46749;32.932;-117.130;2022-08-05T12:19:13;4.25;;;1.50;;
60896;SDS011;46749;32.932;-117.130;2022-08-05T12:21:43;1.92;;;1.40;;
60896;SDS011;46749;32.932;-117.130;2022-08-05T12:24:17;2.03;;;1.52;;
60896;SDS011;46749;32.932;-117.130;2022-08-05T12:26:48;2.28;;;1.38;;
60896;SDS011;46749;32.932;-117.130;2022-08-05T12:29:17;4.88;;;1.95;;
60896;SDS011;46749;32.932;-117.130;2022-08-05T12:31:46;4.22;;;1.80;;
60896;SDS011;46749;32.932;-117.130;2022-08-05T12:34:14;3.00;;;1.65;;
60896;SDS011;46749;32.932;-117.130;2022-08-05T12:36:41;4.40;;;1.83;;
60896;SDS011;46749;32.932;-117.130;2022-08-05T12:39:08;2.85;;;1.70;;
60896;SDS011;46749;32.932;-117.130;2022-08-05T12:41:35;6.70;;;1.85;;
60896;SDS011;46749;32.932;-117.130;2022-08-05T12:44:07;3.50;;;1.50;;
60896;SDS011;46749;32.932;-117.130;2022-08-05T12:46:39;3.70;;;1.80;;
60896;SDS011;46749;32.932;-117.130;2022-08-05T12:49:07;3.10;;;1.70;;
60896;SDS011;46749;32.932;-117.130;2022-08-05T12:54:41;3.42;;;1.60;;
60896;SDS011;46749;32.932;-117.130;2022-08-05T12:57:09;1.85;;;1.27;;
60896;SDS011;46749;32.932;-117.130;2022-08-05T12:59:44;2.00;;;1.50;;
60896;SDS011;46749;32.932;-117.130;2022-08-05T13:02:15;4.68;;;1.45;;
60896;SDS011;46749;32.932;-117.130;2022-08-05T13:04:44;4.50;;;1.40;;
60896;SDS011;46749;32.932;-117.130;2022-08-05T13:07:13;4.00;;;1.60;;
60896;SDS011;46749;32.932;-117.130;2022-08-05T13:09:47;2.83;;;1.65;;
60896;SDS011;46749;32.932;-117.130;2022-08-05T13:12:16;3.40;;;1.65;;
60896;SDS011;46749;32.932;-117.130;2022-08-05T13:14:44;2.60;;;1.60;;
60896;SDS011;46749;32.932;-117.130;2022-08-05T13:20:32;3.90;;;2.00;;
60896;SDS011;46749;32.932;-117.130;2022-08-05T13:22:47;3.85;;;1.92;;
60896;SDS011;46749;32.932;-117.130;2022-08-05T13:25:15;7.72;;;2.00;;
60896;SDS011;46749;32.932;-117.130;2022-08-05T13:27:45;3.65;;;1.70;;
60896;SDS011;46749;32.932;-117.130;2022-08-05T13:30:14;3.95;;;2.20;;
60896;SDS011;46749;32.932;-117.130;2022-08-05T13:32:42;6.13;;;1.88;;
60896;SDS011;46749;32.932;-117.130;2022-08-05T13:35:13;2.92;;;1.58;;
60896;SDS011;46749;32.932;-117.130;2022-08-05T13:37:40;4.03;;;1.55;;
60896;SDS011;46749;32.932;-117.130;2022-08-05T13:40:07;3.65;;;2.40;;
60896;SDS011;46749;32.932;-117.130;2022-08-05T13:42:34;3.78;;;1.77;;
60896;SDS011;46749;32.932;-117.130;2022-08-05T13:45:00;3.85;;;1.95;;
60896;SDS011;46749;32.932;-117.130;2022-08-05T13:47:28;3.45;;;1.63;;
60896;SDS011;46749;32.932;-117.130;2022-08-05T13:49:54;2.75;;;1.40;;
60896;SDS011;46749;32.932;-117.130;2022-08-05T13:52:24;3.15;;;1.60;;
60896;SDS011;46749;32.932;-117.130;2022-08-05T13:54:53;3.35;;;1.60;;
60896;SDS011;46749;32.932;-117.130;2022-08-05T13:57:19;4.68;;;1.67;;
60896;SDS011;46749;32.932;-117.130;2022-08-05T13:59:46;3.10;;;1.70;;
60896;SDS011;46749;32.932;-117.130;2022-08-05T14:02:13;2.72;;;1.58;;
60896;SDS011;46749;32.932;-117.130;2022-08-05T14:04:43;2.35;;;1.58;;
60896;SDS011;46749;32.932;-117.130;2022-08-05T14:07:30;2.47;;;1.75;;
60896;SDS011;46749;32.932;-117.130;2022-08-05T14:09:58;3.70;;;1.70;;
60896;SDS011;46749;32.932;-117.130;2022-08-05T14:12:25;4.75;;;1.80;;
60896;SDS011;46749;32.932;-117.130;2022-08-05T14:14:51;3.47;;;1.60;;
60896;SDS011;46749;32.932;-117.130;2022-08-05T14:17:18;3.45;;;1.80;;
60896;SDS011;46749;32.932;-117.130;2022-08-05T14:19:47;3.58;;;1.85;;
60896;SDS011;46749;32.932;-117.130;2022-08-05T14:22:14;3.83;;;1.60;;
60896;SDS011;46749;32.932;-117.130;2022-08-05T14:24:40;3.28;;;1.48;;
60896;SDS011;46749;32.932;-117.130;2022-08-05T14:27:06;2.97;;;1.83;;
60896;SDS011;46749;32.932;-117.130;2022-08-05T14:29:32;3.17;;;1.60;;
60896;SDS011;46749;32.932;-117.130;2022-08-05T14:31:58;2.13;;;1.60;;
60896;SDS011;46749;32.932;-117.130;2022-08-05T14:34:25;2.80;;;1.67;;
60896;SDS011;46749;32.932;-117.130;2022-08-05T14:36:51;3.45;;;1.80;;
60896;SDS011;46749;32.932;-117.130;2022-08-05T14:39:17;3.08;;;1.60;;
60896;SDS011;46749;32.932;-117.130;2022-08-05T14:41:43;2.78;;;1.70;;
60896;SDS011;46749;32.932;-117.130;2022-08-05T14:44:09;2.05;;;1.30;;
60896;SDS011;46749;32.932;-117.130;2022-08-05T14:46:35;1.70;;;1.55;;
60896;SDS011;46749;32.932;-117.130;2022-08-05T14:49:03;4.68;;;1.85;;
60896;SDS011;46749;32.932;-117.130;2022-08-05T14:51:31;2.95;;;1.50;;
60896;SDS011;46749;32.932;-117.130;2022-08-05T14:53:58;3.92;;;2.08;;